Terminal Aerodrome Forecast
Issued by NWS

Home | Current Version | Previous Version | Text Only | Print | Product List | Glossary On
Versions: 1 2 3 4 5 6 7 8 9 10 11 12 13 14 15 16 17 18 19 20 21
000
FTUS41 KBGM 271800 AAA
TAFITH
TAF AMD
KITH 271857Z 2719/2818 34005KT P6SM SCT015 BKN025
      TEMPO 2719/2721 BKN015 OVC025
     FM272200 32005KT P6SM SCT035 SCT080
     FM280900 29006KT P6SM OVC018
     FM281400 32010KT P6SM BKN035=

USA.gov is the U.S. government's official web portal to all federal, state and local government web resources and services.